SLRI/RIB METAR and TAF weather

Enter ICAO airport designator
Station Type Date Time Source
SLRI METAR 2022/01/28 23:00 UTC NOAA

SLRI 282300Z 00000KT 8000 VCSH SCT020 FEW023CB BKN070 OVC200 25/23 Q1006


Station Type Date Time Source
SLRI Decoded METAR 2022/01/28 23:00 UTC NOAA

Riberalta, Bolivia (SLRI) 11-00S 066-07W
Jan 28, 2022 - 06:00 PM EST / 2022.01.28 2300 UTC
Wind: Calm:0
Visibility: 4 mile(s):0
Sky conditions: overcast
Weather: showers in the vicinity; Cumulonimbus clouds observed
Temperature: 77 F (25 C)
Dew Point: 73 F (23 C)
Relative Humidity: 88%
Pressure (altimeter): 29.71 in. Hg (1006 hPa)
ob: SLRI 282300Z 00000KT 8000 VCSH SCT020 FEW023CB BKN070 OVC200 25/23 Q1006
cycle: 23

Station Type Date Time Source
SLRI TAF 2015/11/18 00:29 UTC NOAA

TAF SLRI 182200Z 1900/1924 00000KT 9999 FEW015 TX37/1919Z TN23/1910Z
BECMG 1912/1914 33011KT SCT020
TEMPO 1919/1922 8000 VCSH FEW020 FEW023CB BKN080

Example: see airport list